createdAt,value
2023-11-14T00:01:25.538Z,28.38
2023-11-14T00:03:52.445Z,30.90
2023-11-14T00:06:19.193Z,26.30
2023-11-14T00:08:46.608Z,27.70
2023-11-14T00:11:13.339Z,42.33
2023-11-14T00:13:40.184Z,42.72
2023-11-14T00:16:07.623Z,30.63
2023-11-14T00:18:34.538Z,32.45
2023-11-14T00:21:01.283Z,36.08
2023-11-14T00:23:28.031Z,37.03
2023-11-14T00:25:54.794Z,33.45
2023-11-14T00:28:21.550Z,31.70
2023-11-14T00:30:48.405Z,33.70
2023-11-14T00:33:15.218Z,35.03
2023-11-14T00:35:44.313Z,51.10
2023-11-14T00:38:11.203Z,36.55
2023-11-14T00:40:40.253Z,33.25
2023-11-14T00:43:06.979Z,32.67
2023-11-14T00:45:33.626Z,34.85
2023-11-14T00:48:01.193Z,39.15
2023-11-14T00:50:28.096Z,35.15
2023-11-14T00:52:55.035Z,31.33
2023-11-14T00:55:21.713Z,31.20
2023-11-14T00:57:48.306Z,43.10
2023-11-14T01:00:16.006Z,34.35
2023-11-14T01:02:42.860Z,41.10
2023-11-14T01:05:09.747Z,33.30
2023-11-14T01:07:36.914Z,32.67
2023-11-14T01:10:05.060Z,37.60
2023-11-14T01:12:33.591Z,35.20
2023-11-14T01:15:01.186Z,38.55
2023-11-14T01:17:28.560Z,40.88
2023-11-14T01:19:55.361Z,42.30
2023-11-14T01:22:22.092Z,33.78
2023-11-14T01:24:48.847Z,34.30
2023-11-14T01:27:16.954Z,41.75
2023-11-14T01:29:47.681Z,42.55
2023-11-14T01:32:14.437Z,40.05
2023-11-14T01:34:42.134Z,37.28
2023-11-14T01:37:10.294Z,36.55
2023-11-14T01:39:37.152Z,46.72
2023-11-14T01:42:03.996Z,41.08
2023-11-14T01:44:31.356Z,41.63
2023-11-14T01:46:58.542Z,33.05
2023-11-14T01:49:25.430Z,44.10
2023-11-14T01:51:52.084Z,38.42
2023-11-14T01:54:18.985Z,34.83
2023-11-14T01:56:46.088Z,39.78
2023-11-14T01:59:12.886Z,39.70
2023-11-14T02:01:39.772Z,39.13
2023-11-14T02:04:11.506Z,38.50
2023-11-14T02:06:38.518Z,31.20
2023-11-14T02:09:08.788Z,34.67
2023-11-14T02:11:36.283Z,37.00
2023-11-14T02:14:03.115Z,50.10
2023-11-14T02:16:49.573Z,45.17
2023-11-14T02:19:16.925Z,44.20
2023-11-14T02:21:44.200Z,38.55
2023-11-14T02:24:22.200Z,41.63
2023-11-14T02:26:50.277Z,36.63
2023-11-14T02:29:19.746Z,41.83
2023-11-14T02:31:49.187Z,32.45
2023-11-14T02:34:16.411Z,33.13
2023-11-14T02:36:43.398Z,32.63
2023-11-14T02:39:10.066Z,42.20
2023-11-14T02:41:36.955Z,27.02
2023-11-14T02:44:04.367Z,37.70
2023-11-14T02:46:31.672Z,29.63
2023-11-14T02:49:11.384Z,32.67
2023-11-14T02:51:38.675Z,39.47
2023-11-14T02:54:05.711Z,36.17
2023-11-14T02:56:32.262Z,40.92
2023-11-14T02:59:01.610Z,33.38
2023-11-14T03:01:28.423Z,34.45
2023-11-14T03:03:55.067Z,29.77
2023-11-14T03:06:22.747Z,36.53
2023-11-14T03:08:49.349Z,40.30
2023-11-14T03:11:16.015Z,32.90
2023-11-14T03:13:43.004Z,43.83
2023-11-14T03:16:15.116Z,42.25
2023-11-14T03:18:42.031Z,34.13
2023-11-14T03:21:08.819Z,32.85
2023-11-14T03:23:35.379Z,32.05
2023-11-14T03:26:02.118Z,40.33
2023-11-14T03:28:28.747Z,35.25
2023-11-14T03:30:55.400Z,37.67
2023-11-14T03:33:22.058Z,28.65
2023-11-14T03:35:48.760Z,29.55
2023-11-14T03:38:15.769Z,33.47
2023-11-14T03:40:42.461Z,45.75
2023-11-14T03:43:09.689Z,37.22
2023-11-14T03:45:36.800Z,37.25
2023-11-14T03:48:03.570Z,42.17
2023-11-14T03:50:30.235Z,44.65
2023-11-14T03:52:56.923Z,26.70
2023-11-14T03:55:25.027Z,41.88
2023-11-14T03:57:51.669Z,38.35
2023-11-14T04:00:18.448Z,38.40
2023-11-14T04:02:45.248Z,39.97
2023-11-14T04:05:12.021Z,41.63
2023-11-14T04:07:39.994Z,40.88
2023-11-14T04:10:08.390Z,35.42
2023-11-14T04:12:35.250Z,34.97
2023-11-14T04:15:01.972Z,33.13
2023-11-14T04:17:28.787Z,37.28
2023-11-14T04:19:55.605Z,36.15
2023-11-14T04:22:22.469Z,29.35
2023-11-14T04:24:50.201Z,33.58
2023-11-14T04:27:17.728Z,44.30
2023-11-14T04:29:44.693Z,35.95
2023-11-14T04:32:11.538Z,33.92
2023-11-14T04:34:38.719Z,36.90
2023-11-14T04:37:06.098Z,32.45
2023-11-14T04:39:32.992Z,31.42
2023-11-14T04:41:59.924Z,39.28
2023-11-14T04:44:26.719Z,39.20
2023-11-14T04:46:53.526Z,41.05
2023-11-14T04:49:21.152Z,39.40
2023-11-14T04:51:47.772Z,34.13
2023-11-14T04:54:14.470Z,35.45
2023-11-14T04:56:41.155Z,36.78
2023-11-14T04:59:07.784Z,39.53
2023-11-14T05:01:34.621Z,41.13
2023-11-14T05:04:01.301Z,42.53
2023-11-14T05:06:29.072Z,34.42
2023-11-14T05:08:55.693Z,29.95
2023-11-14T05:11:22.338Z,35.08
2023-11-14T05:13:49.044Z,33.95
2023-11-14T05:16:22.504Z,34.78
2023-11-14T05:18:51.230Z,38.00
2023-11-14T05:21:18.283Z,34.75
2023-11-14T05:23:44.964Z,39.13
2023-11-14T05:26:11.573Z,33.30
2023-11-14T05:28:39.369Z,37.28
2023-11-14T05:31:06.432Z,38.92
2023-11-14T05:33:33.209Z,35.90
2023-11-14T05:35:59.873Z,35.38
2023-11-14T05:38:28.528Z,36.33
2023-11-14T05:40:57.746Z,33.72
2023-11-14T05:43:25.669Z,34.13
2023-11-14T05:45:52.493Z,35.70
2023-11-14T05:48:20.871Z,38.83
2023-11-14T05:50:48.768Z,33.55
2023-11-14T05:53:17.079Z,38.97
2023-11-14T05:55:43.932Z,41.50
2023-11-14T05:58:11.699Z,32.10
2023-11-14T06:00:38.402Z,34.47
2023-11-14T06:03:05.206Z,30.35
2023-11-14T06:05:31.992Z,36.55
2023-11-14T06:07:58.742Z,34.20
2023-11-14T06:10:25.462Z,32.60
2023-11-14T06:12:52.890Z,37.53
2023-11-14T06:15:19.745Z,36.25
2023-11-14T06:17:46.480Z,29.70
2023-11-14T06:20:15.745Z,31.42
2023-11-14T06:22:42.669Z,36.05
2023-11-14T06:25:09.478Z,38.13
2023-11-14T06:27:36.256Z,34.10
2023-11-14T06:30:03.126Z,29.27
2023-11-14T06:32:30.229Z,38.22
2023-11-14T06:34:57.548Z,40.65
2023-11-14T06:37:24.274Z,37.97
2023-11-14T06:39:50.999Z,28.35
2023-11-14T06:42:17.633Z,37.90
2023-11-14T06:44:44.882Z,26.40
2023-11-14T06:47:11.850Z,27.85
2023-11-14T06:49:38.829Z,37.22
2023-11-14T06:52:05.520Z,38.92
2023-11-14T06:54:32.134Z,32.63
2023-11-14T06:57:00.557Z,35.28
2023-11-14T06:59:27.314Z,31.27
2023-11-14T07:01:54.121Z,37.05
2023-11-14T07:04:21.313Z,37.58
2023-11-14T07:06:48.114Z,37.50
2023-11-14T07:09:16.874Z,33.95
2023-11-14T07:11:45.822Z,35.53
2023-11-14T07:14:13.866Z,34.53
2023-11-14T07:16:40.690Z,42.80
2023-11-14T07:19:07.821Z,36.78
2023-11-14T07:21:34.675Z,35.78
2023-11-14T07:24:01.318Z,41.33
2023-11-14T07:26:29.067Z,42.05
2023-11-14T07:28:55.815Z,33.65
2023-11-14T07:31:22.567Z,41.53
2023-11-14T07:33:49.201Z,33.22
2023-11-14T07:36:15.886Z,44.00
2023-11-14T07:38:44.270Z,45.63
2023-11-14T07:41:11.879Z,31.13
2023-11-14T07:43:38.929Z,30.08
2023-11-14T07:46:07.163Z,39.95
2023-11-14T07:48:35.089Z,37.33
2023-11-14T07:51:02.153Z,38.35
2023-11-14T07:53:28.716Z,38.67
2023-11-14T07:55:55.643Z,40.10
2023-11-14T07:58:26.228Z,37.13
2023-11-14T08:00:53.658Z,23.95
2023-11-14T08:03:20.489Z,32.22
2023-11-14T08:05:48.788Z,35.35
2023-11-14T08:08:16.809Z,33.15
2023-11-14T08:10:43.471Z,33.40
2023-11-14T08:13:10.091Z,26.55
2023-11-14T08:15:36.758Z,26.48
2023-11-14T08:18:03.540Z,39.05
2023-11-14T08:20:30.155Z,27.38
2023-11-14T08:22:56.948Z,30.88
2023-11-14T08:25:23.793Z,28.45
2023-11-14T08:27:50.876Z,29.58
2023-11-14T08:30:17.999Z,26.92
2023-11-14T08:32:46.318Z,32.78
2023-11-14T08:35:13.113Z,34.80
2023-11-14T08:37:39.749Z,37.78
2023-11-14T08:40:10.986Z,29.90
2023-11-14T08:42:37.900Z,25.83
2023-11-14T08:45:05.046Z,32.55
2023-11-14T08:47:31.651Z,31.55
2023-11-14T08:49:58.364Z,31.90
2023-11-14T08:52:25.092Z,30.63
2023-11-14T08:54:51.815Z,30.48
2023-11-14T08:57:18.497Z,22.25
2023-11-14T08:59:45.101Z,31.27
2023-11-14T09:02:11.812Z,28.00
2023-11-14T09:04:38.519Z,39.92
2023-11-14T09:07:05.383Z,26.73
2023-11-14T09:09:32.005Z,34.53
2023-11-14T09:11:59.313Z,29.38
2023-11-14T09:14:27.006Z,28.20
2023-11-14T09:16:54.876Z,31.92
2023-11-14T09:19:23.765Z,31.67
2023-11-14T09:21:50.640Z,29.48
2023-11-14T09:24:17.444Z,29.42
2023-11-14T09:26:44.285Z,31.65
2023-11-14T09:29:11.011Z,30.73
2023-11-14T09:31:37.823Z,32.95
2023-11-14T09:34:05.692Z,25.23
2023-11-14T09:36:32.327Z,36.30
2023-11-14T09:38:58.966Z,28.00
2023-11-14T09:41:28.665Z,28.95
2023-11-14T09:43:56.054Z,33.30
2023-11-14T09:46:22.767Z,28.65
2023-11-14T09:48:50.960Z,39.10
2023-11-14T09:51:19.345Z,30.08
2023-11-14T09:53:48.362Z,28.48
2023-11-14T09:56:16.722Z,34.83
2023-11-14T09:58:43.631Z,29.25
2023-11-14T10:01:11.670Z,32.75
2023-11-14T10:03:38.865Z,26.63
2023-11-14T10:06:05.813Z,31.85
2023-11-14T10:08:45.343Z,27.58
2023-11-14T10:11:15.677Z,28.70
2023-11-14T10:13:42.372Z,29.80
2023-11-14T10:16:22.520Z,32.17
2023-11-14T10:18:51.163Z,30.00
2023-11-14T10:21:22.574Z,27.90
2023-11-14T10:23:49.442Z,19.73
2023-11-14T10:26:16.406Z,28.83
2023-11-14T10:29:01.259Z,31.27
2023-11-14T10:31:39.102Z,26.17
2023-11-14T10:34:10.948Z,30.65
2023-11-14T10:36:49.935Z,33.40
2023-11-14T10:39:16.647Z,34.83
2023-11-14T10:41:43.728Z,28.17
2023-11-14T10:44:13.239Z,28.35
2023-11-14T10:46:59.847Z,28.42
2023-11-14T10:49:27.548Z,30.95
2023-11-14T10:51:55.806Z,27.25
2023-11-14T10:54:23.361Z,29.20
2023-11-14T10:56:56.000Z,30.73
2023-11-14T10:59:26.531Z,23.00
2023-11-14T11:01:53.624Z,25.67
2023-11-14T11:04:20.975Z,24.67
2023-11-14T11:06:50.643Z,25.83
2023-11-14T11:09:19.910Z,27.10
2023-11-14T11:11:50.621Z,23.20
2023-11-14T11:14:19.494Z,19.52
2023-11-14T11:16:49.170Z,20.05
2023-11-14T11:19:27.281Z,23.92
2023-11-14T11:22:08.498Z,21.77
2023-11-14T11:24:41.345Z,16.67
2023-11-14T11:27:23.962Z,15.82
2023-11-14T11:29:59.813Z,21.23
2023-11-14T11:32:31.733Z,19.50
2023-11-14T11:35:24.984Z,14.25
2023-11-14T11:37:57.971Z,18.40
2023-11-14T11:40:26.861Z,19.73
2023-11-14T11:43:10.204Z,19.45
2023-11-14T11:45:38.066Z,22.83
2023-11-14T11:48:05.080Z,19.50
2023-11-14T11:50:34.143Z,20.90
2023-11-14T11:53:06.200Z,17.08
2023-11-14T11:55:37.026Z,18.45
2023-11-14T11:58:06.906Z,25.88
2023-11-14T12:00:33.921Z,23.58
2023-11-14T12:03:02.289Z,15.20
2023-11-14T12:05:30.617Z,28.88
2023-11-14T12:07:59.389Z,23.05
2023-11-14T12:10:26.894Z,23.00
2023-11-14T12:12:56.785Z,25.05
2023-11-14T12:15:29.531Z,21.63
2023-11-14T12:18:00.074Z,19.30
2023-11-14T12:20:27.342Z,17.33
2023-11-14T12:22:54.441Z,17.65
2023-11-14T12:25:22.402Z,19.73
2023-11-14T12:28:02.645Z,20.00
2023-11-14T12:30:30.113Z,20.50
2023-11-14T12:33:22.989Z,18.75
2023-11-14T12:38:30.496Z,20.90
2023-11-14T12:41:29.769Z,12.45
2023-11-14T12:44:08.031Z,14.98
2023-11-14T12:46:37.991Z,12.85
2023-11-14T12:49:17.854Z,21.15
2023-11-14T12:51:45.969Z,11.60
2023-11-14T12:54:14.276Z,13.75
2023-11-14T12:56:41.681Z,12.43
2023-11-14T12:59:11.691Z,11.75
2023-11-14T13:01:43.116Z,8.52
2023-11-14T13:04:13.271Z,11.70
2023-11-14T13:06:43.279Z,7.85
2023-11-14T13:09:10.269Z,9.02
2023-11-14T13:11:37.085Z,6.13
2023-11-14T13:14:04.433Z,7.70
2023-11-14T13:16:31.658Z,7.95
2023-11-14T13:18:58.407Z,7.97
2023-11-14T13:21:25.823Z,10.73
2023-11-14T13:23:53.080Z,11.88
2023-11-14T13:26:23.918Z,10.25
2023-11-14T13:28:51.902Z,10.52
2023-11-14T13:31:20.067Z,8.02
2023-11-14T13:33:47.606Z,9.30
2023-11-14T13:36:17.623Z,9.80
2023-11-14T13:38:45.741Z,8.10
2023-11-14T13:43:42.919Z,9.13
2023-11-14T13:46:20.238Z,7.95
2023-11-14T13:48:51.591Z,9.25
2023-11-14T13:51:19.505Z,7.15
2023-11-14T13:53:47.359Z,5.05
2023-11-14T13:56:14.157Z,15.18
2023-11-14T13:58:41.526Z,8.35
2023-11-14T14:01:10.441Z,11.00
2023-11-14T14:03:38.597Z,9.32
2023-11-14T14:06:08.555Z,9.50
2023-11-14T14:08:38.724Z,8.52
2023-11-14T14:11:08.906Z,11.20
2023-11-14T14:13:36.311Z,13.00
2023-11-14T14:16:08.868Z,12.40
2023-11-14T14:21:04.225Z,14.63
2023-11-14T14:23:31.482Z,9.90
2023-11-14T14:25:58.902Z,11.40
2023-11-14T14:28:36.004Z,14.18
2023-11-14T14:31:07.685Z,8.27
2023-11-14T14:33:34.460Z,11.75
2023-11-14T14:36:01.080Z,16.88
2023-11-14T14:38:27.774Z,10.43
2023-11-14T14:40:54.429Z,13.90
2023-11-14T14:43:21.103Z,9.35
2023-11-14T14:45:48.237Z,9.35
2023-11-14T14:48:15.283Z,8.20
2023-11-14T14:50:42.106Z,11.73
2023-11-14T14:53:13.077Z,11.05
2023-11-14T14:55:39.690Z,5.68
2023-11-14T14:58:08.327Z,6.75
2023-11-14T15:00:35.152Z,10.48
2023-11-14T15:03:02.937Z,11.50
2023-11-14T15:05:36.489Z,5.60
2023-11-14T15:08:04.434Z,4.55
2023-11-14T15:10:31.775Z,6.85
2023-11-14T15:13:00.242Z,5.13
2023-11-14T15:15:27.915Z,5.78
2023-11-14T15:17:58.445Z,6.65
2023-11-14T15:20:26.040Z,7.25
2023-11-14T15:22:53.396Z,5.38
2023-11-14T15:25:20.346Z,7.80
2023-11-14T15:27:47.134Z,4.03
2023-11-14T15:30:14.771Z,8.65
2023-11-14T15:32:42.791Z,6.63
2023-11-14T15:35:09.599Z,10.25
2023-11-14T15:37:36.407Z,5.95
2023-11-14T15:40:09.612Z,5.13
2023-11-14T15:42:42.739Z,6.05
2023-11-14T15:45:09.726Z,8.45
2023-11-14T15:47:36.458Z,6.35
2023-11-14T15:50:05.534Z,6.50
2023-11-14T15:52:32.973Z,6.93
2023-11-14T15:54:59.744Z,4.63
2023-11-14T15:57:27.785Z,4.57
2023-11-14T15:59:55.180Z,5.95
2023-11-14T16:02:22.136Z,7.50
2023-11-14T16:04:49.654Z,9.25
2023-11-14T16:07:16.658Z,5.03
2023-11-14T16:09:43.363Z,8.65
2023-11-14T16:12:10.295Z,8.75
2023-11-14T16:14:37.209Z,4.72
2023-11-14T16:17:05.028Z,5.85
2023-11-14T16:19:37.585Z,2.72
2023-11-14T16:22:05.411Z,6.03
2023-11-14T16:24:32.399Z,4.57
2023-11-14T16:26:59.937Z,5.93
2023-11-14T16:29:26.730Z,7.70
2023-11-14T16:31:53.629Z,10.50
2023-11-14T16:34:20.280Z,6.50
2023-11-14T16:36:46.946Z,5.20
2023-11-14T16:39:13.604Z,6.50
2023-11-14T16:41:41.452Z,7.13
2023-11-14T16:44:08.267Z,9.00
2023-11-14T16:46:35.662Z,7.70
2023-11-14T16:49:02.392Z,6.18
2023-11-14T16:51:32.472Z,6.30
2023-11-14T16:54:03.080Z,6.07
2023-11-14T16:56:30.121Z,8.73
2023-11-14T16:58:59.251Z,6.60
2023-11-14T17:01:28.053Z,6.90
2023-11-14T17:03:58.939Z,5.95
2023-11-14T17:06:25.914Z,7.25
2023-11-14T17:08:52.561Z,8.57
2023-11-14T17:11:19.341Z,6.03
2023-11-14T17:13:45.968Z,7.03
2023-11-14T17:16:13.827Z,9.23
2023-11-14T17:18:40.684Z,10.27
2023-11-14T17:21:07.472Z,18.80
2023-11-14T17:23:36.642Z,27.80
2023-11-14T17:26:03.448Z,10.20
2023-11-14T17:28:30.149Z,8.77
2023-11-14T17:30:56.750Z,37.00
2023-11-14T17:33:23.445Z,26.25
2023-11-14T17:35:51.292Z,13.75
2023-11-14T17:38:17.903Z,8.60
2023-11-14T17:40:44.693Z,10.45
2023-11-14T17:43:11.400Z,9.50
2023-11-14T17:45:39.502Z,10.63
2023-11-14T17:48:08.971Z,13.25
2023-11-14T17:50:37.203Z,17.30
2023-11-14T17:53:05.001Z,11.07
2023-11-14T17:55:32.136Z,11.60
2023-11-14T17:57:58.773Z,19.80
2023-11-14T18:00:27.407Z,10.02
2023-11-14T18:02:57.059Z,12.82
2023-11-14T18:05:25.592Z,13.35
2023-11-14T18:07:53.140Z,11.73
2023-11-14T18:10:20.406Z,9.88
2023-11-14T18:12:50.498Z,10.55
2023-11-14T18:15:19.081Z,9.75
2023-11-14T18:17:46.487Z,8.55
2023-11-14T18:20:14.138Z,9.98
2023-11-14T18:22:41.840Z,9.63
2023-11-14T18:25:09.480Z,10.65
2023-11-14T18:27:36.345Z,7.97
2023-11-14T18:30:05.206Z,9.70
2023-11-14T18:32:33.750Z,11.10
2023-11-14T18:35:02.528Z,8.63
2023-11-14T18:37:29.207Z,11.45
2023-11-14T18:39:55.801Z,14.77
2023-11-14T18:42:22.368Z,9.95
2023-11-14T18:45:01.422Z,26.13
2023-11-14T18:47:34.105Z,18.17
2023-11-14T18:50:01.130Z,19.88
2023-11-14T18:52:27.924Z,14.85
2023-11-14T18:54:55.968Z,14.50
2023-11-14T18:57:22.586Z,13.35
2023-11-14T18:59:49.295Z,13.40
2023-11-14T19:02:16.010Z,14.43
2023-11-14T19:04:42.840Z,18.23
2023-11-14T19:07:09.564Z,10.95
2023-11-14T19:09:36.213Z,14.80
2023-11-14T19:12:04.376Z,9.35
2023-11-14T19:14:32.010Z,14.68
2023-11-14T19:16:59.782Z,10.27
2023-11-14T19:19:26.918Z,10.90
2023-11-14T19:21:54.001Z,10.90
2023-11-14T19:24:21.018Z,14.63
2023-11-14T19:26:47.824Z,11.05
2023-11-14T19:29:14.724Z,12.90
2023-11-14T19:31:43.370Z,11.07
2023-11-14T19:34:11.288Z,12.70
2023-11-14T19:36:38.552Z,15.32
2023-11-14T19:39:09.306Z,7.20
2023-11-14T19:41:36.119Z,11.07
2023-11-14T19:44:02.778Z,75.05
2023-11-14T19:46:29.446Z,61.08
2023-11-14T19:48:56.130Z,64.43
2023-11-14T19:51:23.900Z,12.93
2023-11-14T19:53:50.780Z,9.75
2023-11-14T19:56:18.247Z,9.13
2023-11-14T19:58:45.678Z,12.00
2023-11-14T20:01:12.803Z,9.10
2023-11-14T20:03:39.690Z,7.70
2023-11-14T20:06:06.950Z,13.68
2023-11-14T20:08:33.814Z,9.20
2023-11-14T20:11:00.857Z,8.25
2023-11-14T20:13:27.743Z,7.45
2023-11-14T20:15:54.406Z,9.93
2023-11-14T20:18:21.171Z,5.78
2023-11-14T20:20:48.051Z,9.00
2023-11-14T20:23:14.717Z,7.07
2023-11-14T20:25:41.417Z,7.22
2023-11-14T20:28:08.486Z,7.18
2023-11-14T20:30:35.095Z,9.00
2023-11-14T20:33:02.057Z,10.45
2023-11-14T20:35:28.917Z,8.55
2023-11-14T20:37:58.820Z,8.07
2023-11-14T20:40:29.745Z,10.07
2023-11-14T20:42:56.422Z,8.30
2023-11-14T20:45:23.155Z,10.65
2023-11-14T20:47:49.916Z,8.32
2023-11-14T20:50:16.931Z,8.95
2023-11-14T20:52:43.823Z,6.13
2023-11-14T20:55:10.491Z,10.88
2023-11-14T20:57:37.288Z,8.00
2023-11-14T21:00:08.707Z,7.68
2023-11-14T21:02:35.460Z,12.23
2023-11-14T21:05:02.072Z,10.90
2023-11-14T21:07:28.630Z,8.60
2023-11-14T21:09:55.215Z,10.65
2023-11-14T21:12:21.821Z,8.52
2023-11-14T21:14:48.478Z,10.00
2023-11-14T21:17:17.564Z,17.48
2023-11-14T21:19:45.748Z,15.57
2023-11-14T21:22:12.443Z,13.23
2023-11-14T21:24:39.916Z,11.38
2023-11-14T21:27:06.812Z,12.70
2023-11-14T21:29:33.529Z,13.48
2023-11-14T21:32:01.788Z,16.35
2023-11-14T21:34:28.387Z,15.35
2023-11-14T21:36:55.075Z,15.93
2023-11-14T21:39:21.730Z,18.67
2023-11-14T21:41:48.348Z,18.73
2023-11-14T21:44:15.057Z,15.13
2023-11-14T21:46:42.701Z,20.13
2023-11-14T21:49:11.266Z,14.05
2023-11-14T21:51:38.516Z,19.70
2023-11-14T21:54:06.172Z,12.73
2023-11-14T21:56:33.742Z,18.88
2023-11-14T21:59:00.448Z,17.27
2023-11-14T22:01:28.561Z,16.17
2023-11-14T22:03:55.221Z,13.07
2023-11-14T22:06:22.102Z,14.27
2023-11-14T22:08:48.818Z,11.32
2023-11-14T22:11:15.620Z,8.80
2023-11-14T22:13:42.277Z,9.60
2023-11-14T22:16:09.086Z,9.70
2023-11-14T22:18:35.707Z,10.50
2023-11-14T22:21:02.396Z,10.77
2023-11-14T22:23:31.233Z,10.50
2023-11-14T22:25:57.799Z,8.10
2023-11-14T22:28:24.844Z,12.95
2023-11-14T22:30:52.240Z,11.27
2023-11-14T22:33:19.469Z,11.35
2023-11-14T22:35:46.222Z,14.13
2023-11-14T22:38:12.914Z,9.40
2023-11-14T22:40:39.957Z,8.02
2023-11-14T22:43:07.116Z,8.70
2023-11-14T22:45:33.819Z,12.73
2023-11-14T22:48:00.595Z,9.85
2023-11-14T22:50:27.361Z,10.77
2023-11-14T22:52:53.931Z,14.23
2023-11-14T22:55:20.537Z,14.68
2023-11-14T22:57:47.133Z,11.55
2023-11-14T23:00:34.101Z,9.50
2023-11-14T23:03:02.008Z,15.45
2023-11-14T23:05:28.744Z,19.70
2023-11-14T23:07:55.368Z,13.95
2023-11-14T23:10:22.513Z,12.18
2023-11-14T23:12:49.952Z,9.30
2023-11-14T23:15:17.903Z,18.75
2023-11-14T23:17:47.684Z,10.77
2023-11-14T23:20:14.456Z,9.07
2023-11-14T23:22:41.036Z,16.80
2023-11-14T23:25:08.123Z,11.50
2023-11-14T23:27:34.968Z,7.80
2023-11-14T23:30:04.878Z,5.35
2023-11-14T23:32:31.575Z,8.68
2023-11-14T23:34:58.261Z,11.75
2023-11-14T23:37:24.938Z,6.95
2023-11-14T23:39:52.297Z,5.50
2023-11-14T23:42:19.135Z,8.95
2023-11-14T23:44:45.836Z,6.70
2023-11-14T23:47:13.130Z,7.93
2023-11-14T23:49:39.924Z,5.18
2023-11-14T23:52:07.134Z,6.03
2023-11-14T23:54:34.092Z,15.05
2023-11-14T23:57:00.829Z,13.80
2023-11-14T23:59:27.582Z,7.85
